Time;durP1;ratioP1;P1;durP2;ratioP2;P2;SDS_P1;SDS_P2;PMS_P1;PMS_P2;Temp;Humidity;BMP_temperature;BMP_pressure;BME280_temperature;BME280_humidity;BME280_pressure;Samples;Min_cycle;Max_cycle;Signal;HPM_P1;HPM_P2
2023/05/16 00:02:16;;;;;;;5.50;2.00;;;9.10;1.00;;;;;;20652340;28;20048;-43
2023/05/16 00:12:18;;;;;;;6.15;1.40;;;9.00;1.00;;;;;;20642830;28;20564;-42
2023/05/16 00:22:20;;;;;;;13.15;1.25;;;8.90;1.00;;;;;;20646388;28;20042;-42
2023/05/16 00:32:21;;;;;;;5.07;1.20;;;8.90;1.00;;;;;;20643219;28;20050;-43
2023/05/16 00:42:22;;;;;;;4.18;1.00;;;8.80;1.00;;;;;;20634544;28;20045;-43
2023/05/16 00:52:24;;;;;;;7.18;1.35;;;8.70;1.00;;;;;;20641806;28;20045;-43
2023/05/16 01:02:27;;;;;;;3.00;1.02;;;8.70;1.00;;;;;;20643247;28;20102;-43
2023/05/16 01:12:31;;;;;;;3.25;1.17;;;8.70;1.00;;;;;;20639246;28;20041;-43
2023/05/16 01:22:47;;;;;;;4.03;1.10;;;8.60;1.00;;;;;;20633484;28;20040;-42
2023/05/16 01:32:48;;;;;;;3.85;1.17;;;8.50;1.00;;;;;;20649696;28;20532;-43
2023/05/16 01:42:53;;;;;;;2.47;1.20;;;8.40;1.00;;;;;;20641298;28;20409;-43
2023/05/16 01:52:54;;;;;;;2.88;0.98;;;8.30;1.00;;;;;;20642516;28;20411;-43
2023/05/16 02:02:55;;;;;;;3.20;1.40;;;8.20;1.00;;;;;;20643641;28;20410;-43
2023/05/16 02:12:56;;;;;;;7.18;1.05;;;8.00;1.00;;;;;;20631418;28;20088;-43
2023/05/16 02:22:57;;;;;;;5.05;0.95;;;7.90;1.00;;;;;;20637758;28;20053;-43
2023/05/16 02:32:58;;;;;;;3.38;1.02;;;7.70;3.90;;;;;;20641203;28;20064;-43
2023/05/16 02:43:00;;;;;;;6.07;1.92;;;7.70;3.90;;;;;;20633934;28;20542;-43
2023/05/16 02:53:01;;;;;;;2.00;1.05;;;7.60;4.80;;;;;;20633180;28;20376;-43
2023/05/16 03:03:04;;;;;;;6.68;1.55;;;7.40;8.30;;;;;;20651549;28;20042;-43
2023/05/16 03:13:05;;;;;;;10.63;2.08;;;7.30;13.90;;;;;;20644545;28;20510;-43
2023/05/16 03:23:07;;;;;;;3.20;1.33;;;7.30;15.00;;;;;;20640601;28;20057;-43
2023/05/16 03:33:08;;;;;;;4.72;1.08;;;7.20;15.60;;;;;;20650175;28;20056;-43
2023/05/16 03:43:09;;;;;;;4.25;1.85;;;7.20;14.00;;;;;;20648873;28;20403;-43
2023/05/16 03:53:11;;;;;;;5.53;1.60;;;7.10;15.40;;;;;;20641896;28;20050;-43
2023/05/16 04:03:12;;;;;;;10.68;1.08;;;7.00;15.90;;;;;;20655831;28;20422;-43
2023/05/16 04:13:14;;;;;;;5.07;1.83;;;6.90;16.90;;;;;;20630466;28;20529;-43
2023/05/16 04:23:15;;;;;;;8.65;1.80;;;6.90;20.60;;;;;;20641940;28;20038;-43
2023/05/16 04:33:17;;;;;;;3.00;1.27;;;6.90;27.40;;;;;;20645780;28;20033;-44
2023/05/16 04:43:19;;;;;;;6.07;2.00;;;7.20;45.50;;;;;;20651428;28;20037;-44
2023/05/16 04:53:20;;;;;;;3.25;1.20;;;7.40;75.70;;;;;;20645886;28;20592;-43
2023/05/16 05:03:21;;;;;;;7.07;1.67;;;7.50;96.40;;;;;;20647209;28;20152;-44
2023/05/16 05:13:23;;;;;;;4.10;1.52;;;7.70;99.90;;;;;;20646593;28;20033;-43
2023/05/16 05:23:24;;;;;;;3.95;1.45;;;7.90;99.90;;;;;;20644745;28;20563;-43
2023/05/16 05:33:29;;;;;;;4.70;1.33;;;8.30;99.90;;;;;;20647923;28;20536;-43
2023/05/16 05:43:30;;;;;;;5.32;1.38;;;8.60;78.60;;;;;;20636559;28;20533;-43
2023/05/16 05:53:33;;;;;;;3.67;1.58;;;8.90;40.60;;;;;;20634600;28;20953;-43
2023/05/16 06:03:34;;;;;;;2.95;1.02;;;9.30;18.20;;;;;;20650663;28;20478;-43
2023/05/16 06:13:35;;;;;;;6.35;1.60;;;9.50;2.10;;;;;;20643484;28;20053;-43
2023/05/16 06:23:36;;;;;;;4.32;1.13;;;9.60;1.00;;;;;;20658921;28;20048;-44
2023/05/16 06:33:37;;;;;;;2.05;0.68;;;9.90;1.00;;;;;;20641899;28;20370;-43
2023/05/16 06:43:40;;;;;;;3.40;1.00;;;10.20;1.00;;;;;;20657250;28;20046;-43
2023/05/16 06:53:41;;;;;;;5.78;1.35;;;10.70;1.00;;;;;;20664799;28;20512;-43
2023/05/16 07:03:42;;;;;;;2.17;1.00;;;11.10;1.00;;;;;;20660195;28;20034;-43
2023/05/16 07:13:43;;;;;;;4.00;0.40;;;11.50;1.00;;;;;;20662978;28;20053;-43
2023/05/16 07:23:44;;;;;;;1.90;0.60;;;11.60;1.00;;;;;;20653392;28;20318;-43
2023/05/16 07:33:45;;;;;;;3.60;0.50;;;11.50;1.00;;;;;;20658505;28;20396;-43
2023/05/16 07:43:47;;;;;;;4.00;0.45;;;11.50;1.00;;;;;;20655352;28;20374;-43
2023/05/16 07:53:48;;;;;;;4.70;1.65;;;11.80;1.00;;;;;;20657430;28;20072;-43
2023/05/16 08:03:51;;;;;;;1.98;0.73;;;11.90;1.00;;;;;;20668580;28;20042;-41
2023/05/16 08:13:52;;;;;;;3.42;0.60;;;12.10;1.00;;;;;;20641704;28;20053;-41
2023/05/16 08:23:53;;;;;;;4.20;0.88;;;12.20;1.00;;;;;;20643481;28;20727;-42
2023/05/16 08:33:54;;;;;;;6.32;1.00;;;11.90;1.00;;;;;;20648522;28;20050;-41
2023/05/16 08:43:56;;;;;;;1.42;0.55;;;12.20;1.00;;;;;;20654382;28;20054;-41
2023/05/16 08:54:02;;;;;;;1.90;0.50;;;12.40;1.00;;;;;;20645247;28;20038;-41
2023/05/16 09:04:07;;;;;;;3.47;1.23;;;12.40;1.00;;;;;;20657025;28;20049;-42
2023/05/16 09:14:08;;;;;;;2.42;0.80;;;13.00;1.00;;;;;;20642764;28;20050;-43
2023/05/16 09:24:09;;;;;;;2.33;0.50;;;13.30;1.00;;;;;;20655440;28;20065;-41
2023/05/16 09:34:11;;;;;;;3.42;0.93;;;13.40;1.00;;;;;;20652249;28;20046;-42
2023/05/16 09:44:13;;;;;;;3.78;0.82;;;13.50;1.00;;;;;;20637282;28;20045;-42
2023/05/16 09:54:14;;;;;;;3.28;0.60;;;13.60;1.00;;;;;;20646280;28;20065;-41
2023/05/16 10:04:15;;;;;;;3.47;0.40;;;13.60;1.00;;;;;;20650337;28;20050;-41
2023/05/16 10:14:19;;;;;;;6.03;1.33;;;13.80;1.00;;;;;;20646868;28;20499;-42
2023/05/16 10:24:30;;;;;;;5.63;1.38;;;13.80;1.00;;;;;;20651022;28;20073;-42
2023/05/16 10:34:31;;;;;;;4.00;0.40;;;13.60;1.00;;;;;;20636102;28;20046;-41
2023/05/16 10:44:33;;;;;;;3.10;0.68;;;13.60;1.00;;;;;;20644440;28;20035;-41
2023/05/16 10:54:42;;;;;;;6.65;0.57;;;13.80;1.00;;;;;;20652495;28;20053;-41
2023/05/16 11:04:54;;;;;;;3.85;0.85;;;14.50;1.00;;;;;;20647534;28;20061;-42
2023/05/16 11:14:57;;;;;;;4.38;0.75;;;15.00;1.00;;;;;;20641126;28;20091;-41
2023/05/16 11:25:06;;;;;;;1.33;0.30;;;15.20;1.00;;;;;;20655839;28;20030;-41
2023/05/16 11:35:10;;;;;;;3.47;0.60;;;14.90;1.00;;;;;;20659654;28;20046;-41
2023/05/16 11:45:15;;;;;;;1.70;0.40;;;14.80;1.00;;;;;;20672429;28;20053;-41
2023/05/16 11:55:17;;;;;;;5.95;0.50;;;15.00;1.00;;;;;;20669847;28;20127;-41
2023/05/16 12:05:23;;;;;;;6.55;1.27;;;14.90;1.00;;;;;;20666286;28;20046;-41
2023/05/16 12:15:25;;;;;;;3.92;0.38;;;14.90;1.00;;;;;;20659275;28;20040;-41
2023/05/16 12:25:31;;;;;;;2.53;0.90;;;15.20;1.00;;;;;;20658188;28;20053;-41
2023/05/16 12:35:34;;;;;;;1.50;0.60;;;15.10;1.00;;;;;;20657810;28;20046;-42
2023/05/16 12:45:35;;;;;;;1.85;0.32;;;16.00;1.00;;;;;;20652552;28;20038;-42
2023/05/16 12:55:36;;;;;;;2.17;0.43;;;16.10;1.00;;;;;;20651207;28;20050;-42
2023/05/16 13:05:37;;;;;;;3.00;0.50;;;15.30;1.00;;;;;;20662783;28;20038;-41
2023/05/16 13:15:38;;;;;;;1.83;0.40;;;15.30;1.00;;;;;;20660694;28;20617;-41
2023/05/16 13:25:39;;;;;;;3.45;0.40;;;15.80;1.00;;;;;;20647748;28;20069;-42
2023/05/16 13:35:40;;;;;;;1.65;0.68;;;15.60;1.00;;;;;;20637137;28;20057;-41
2023/05/16 13:45:42;;;;;;;1.10;0.40;;;15.60;1.00;;;;;;20654508;28;20387;-41
2023/05/16 13:55:43;;;;;;;4.03;0.22;;;15.70;1.00;;;;;;20659180;28;20045;-41
2023/05/16 14:05:45;;;;;;;3.75;0.40;;;16.50;1.00;;;;;;20645989;28;20045;-41
2023/05/16 14:15:46;;;;;;;1.38;0.20;;;16.50;1.00;;;;;;20650000;28;20092;-41
2023/05/16 14:25:47;;;;;;;1.48;0.35;;;15.90;1.00;;;;;;20632893;28;20041;-41
2023/05/16 14:35:49;;;;;;;1.00;0.28;;;15.60;1.00;;;;;;20635890;28;20498;-42
2023/05/16 14:45:50;;;;;;;2.28;0.90;;;15.30;1.00;;;;;;20651783;28;20041;-41
2023/05/16 14:55:51;;;;;;;3.60;0.40;;;15.20;1.00;;;;;;20649163;28;20582;-41
2023/05/16 15:05:53;;;;;;;1.05;0.22;;;15.40;1.00;;;;;;20668464;28;20042;-41
2023/05/16 15:15:54;;;;;;;3.45;0.82;;;15.60;1.00;;;;;;20671343;28;20045;-41
2023/05/16 15:25:55;;;;;;;3.33;0.32;;;15.40;1.00;;;;;;20652809;28;20223;-41
2023/05/16 15:35:56;;;;;;;1.90;0.90;;;15.40;1.00;;;;;;20649251;28;20049;-41
2023/05/16 15:45:58;;;;;;;1.25;0.60;;;15.10;1.00;;;;;;20667906;28;20030;-41
2023/05/16 15:55:59;;;;;;;1.38;0.50;;;14.50;1.00;;;;;;20668403;28;20057;-41
2023/05/16 16:06:00;;;;;;;1.45;0.50;;;14.20;1.00;;;;;;20669589;28;20044;-42
2023/05/16 16:16:01;;;;;;;2.75;1.02;;;13.80;1.00;;;;;;20640294;28;20046;-41
2023/05/16 16:26:04;;;;;;;2.95;1.45;;;13.60;1.00;;;;;;20638764;28;20034;-41
2023/05/16 16:36:06;;;;;;;5.47;1.70;;;13.40;1.00;;;;;;20629665;28;20533;-41
2023/05/16 16:46:07;;;;;;;2.90;1.10;;;14.00;1.00;;;;;;20632605;28;20046;-41
2023/05/16 16:56:08;;;;;;;9.68;1.67;;;14.20;1.00;;;;;;20634200;28;20034;-41
2023/05/16 17:06:10;;;;;;;4.72;1.25;;;14.10;1.00;;;;;;20635424;28;20041;-41
2023/05/16 17:16:11;;;;;;;1.73;0.70;;;13.80;1.00;;;;;;20627004;28;20053;-42
2023/05/16 17:26:12;;;;;;;3.42;1.27;;;13.70;1.00;;;;;;20624544;28;20089;-41
2023/05/16 17:36:13;;;;;;;3.05;1.35;;;13.60;1.00;;;;;;20612592;28;20042;-41
2023/05/16 17:46:14;;;;;;;3.17;0.90;;;13.40;1.00;;;;;;20629363;28;20041;-41
2023/05/16 17:56:15;;;;;;;4.30;1.20;;;13.10;1.00;;;;;;20621572;28;20046;-42
2023/05/16 18:06:16;;;;;;;7.65;1.95;;;12.90;1.00;;;;;;20616506;28;20486;-41
2023/05/16 18:16:17;;;;;;;3.17;0.88;;;12.90;1.00;;;;;;20616044;28;20069;-41
2023/05/16 18:26:19;;;;;;;4.25;1.17;;;12.70;1.00;;;;;;20615065;28;20041;-41
2023/05/16 18:36:20;;;;;;;5.10;0.70;;;12.40;1.00;;;;;;20648925;28;20041;-41
2023/05/16 18:46:21;;;;;;;4.97;1.30;;;12.30;1.00;;;;;;20654909;28;20514;-41
2023/05/16 18:56:22;;;;;;;3.15;0.77;;;12.20;1.00;;;;;;20639718;28;20064;-41
2023/05/16 19:06:23;;;;;;;4.10;1.00;;;12.10;1.00;;;;;;20645301;28;20314;-42
2023/05/16 19:16:25;;;;;;;4.50;1.35;;;11.90;1.00;;;;;;20646956;28;20042;-41
2023/05/16 19:26:26;;;;;;;3.22;0.93;;;11.70;1.00;;;;;;20647275;28;20053;-41
2023/05/16 19:36:27;;;;;;;5.15;0.93;;;11.50;1.00;;;;;;20640707;28;20042;-41
2023/05/16 19:46:29;;;;;;;6.88;1.80;;;11.30;1.00;;;;;;20639608;28;20038;-41
2023/05/16 19:56:30;;;;;;;5.97;1.35;;;11.10;1.00;;;;;;20623778;28;20038;-41
2023/05/16 20:06:32;;;;;;;4.00;1.45;;;10.90;1.00;;;;;;20629242;28;20333;-42
2023/05/16 20:16:33;;;;;;;7.28;1.13;;;10.80;1.00;;;;;;20633166;28;20030;-41
2023/05/16 20:26:34;;;;;;;2.67;1.33;;;10.70;1.00;;;;;;20625419;28;20052;-42
2023/05/16 20:36:35;;;;;;;5.38;1.52;;;10.50;1.00;;;;;;20618418;28;20489;-41
2023/05/16 20:46:45;;;;;;;7.22;1.42;;;10.40;1.00;;;;;;20636524;28;20030;-43
2023/05/16 20:56:46;;;;;;;5.22;1.73;;;10.40;1.00;;;;;;20636071;28;20043;-42
2023/05/16 21:06:48;;;;;;;4.30;1.65;;;10.30;1.00;;;;;;20617072;28;20120;-43
2023/05/16 21:16:50;;;;;;;9.93;2.20;;;10.10;1.00;;;;;;20630969;28;20035;-42
2023/05/16 21:26:51;;;;;;;3.53;1.63;;;10.00;1.00;;;;;;20629860;28;20535;-43
2023/05/16 21:36:53;;;;;;;4.68;1.30;;;9.90;1.00;;;;;;20652071;28;20343;-42
2023/05/16 21:47:14;;;;;;;4.00;1.85;;;9.90;1.00;;;;;;20622106;28;20107;-43
2023/05/16 21:57:15;;;;;;;3.58;1.40;;;9.70;1.00;;;;;;20614318;28;20053;-42
2023/05/16 22:07:16;;;;;;;5.43;1.95;;;9.70;1.00;;;;;;20620230;28;20038;-42
2023/05/16 22:17:18;;;;;;;5.78;1.40;;;9.60;1.00;;;;;;20628473;28;20046;-42
2023/05/16 22:27:19;;;;;;;5.97;2.45;;;9.50;1.00;;;;;;20622716;28;20433;-43
2023/05/16 22:37:20;;;;;;;8.63;1.90;;;9.50;3.00;;;;;;20620312;28;22302;-43
2023/05/16 22:47:21;;;;;;;5.63;2.15;;;9.40;6.60;;;;;;20625263;28;20042;-43
2023/05/16 22:57:22;;;;;;;8.73;2.95;;;9.30;9.20;;;;;;20618847;28;20049;-42
2023/05/16 23:07:23;;;;;;;6.28;1.33;;;9.30;16.90;;;;;;20593344;28;20045;-42
2023/05/16 23:17:24;;;;;;;8.13;2.13;;;9.20;15.10;;;;;;20641816;28;20041;-42
2023/05/16 23:27:25;;;;;;;4.78;1.75;;;9.20;20.10;;;;;;20649511;28;22277;-43
2023/05/16 23:37:26;;;;;;;5.90;1.77;;;9.10;20.90;;;;;;20651640;28;20050;-42
2023/05/16 23:47:27;;;;;;;7.88;2.15;;;9.10;25.30;;;;;;20644300;28;20034;-43
2023/05/16 23:57:28;;;;;;;7.05;1.90;;;9.10;30.00;;;;;;20647628;28;20049;-43
